sensor_id;sensor_type;location;lat;lon;timestamp;temperature;humidity
33645;DHT22;19986;48.190;16.366;2023-04-25T00:01:21;14.10;99.90
33645;DHT22;19986;48.190;16.366;2023-04-25T00:03:47;14.10;99.90
33645;DHT22;19986;48.190;16.366;2023-04-25T00:06:14;14.10;99.90
33645;DHT22;19986;48.190;16.366;2023-04-25T00:08:40;14.00;99.90
33645;DHT22;19986;48.190;16.366;2023-04-25T00:11:06;14.10;99.90
33645;DHT22;19986;48.190;16.366;2023-04-25T00:13:32;14.00;99.90
33645;DHT22;19986;48.190;16.366;2023-04-25T00:15:58;14.00;99.90
33645;DHT22;19986;48.190;16.366;2023-04-25T00:18:24;13.90;99.90
33645;DHT22;19986;48.190;16.366;2023-04-25T00:20:50;13.90;99.90
33645;DHT22;19986;48.190;16.366;2023-04-25T00:23:16;14.00;99.90
33645;DHT22;19986;48.190;16.366;2023-04-25T00:25:47;13.90;99.90
33645;DHT22;19986;48.190;16.366;2023-04-25T00:28:13;14.00;99.90
33645;DHT22;19986;48.190;16.366;2023-04-25T00:30:40;13.90;99.90
33645;DHT22;19986;48.190;16.366;2023-04-25T00:33:06;14.00;99.90
33645;DHT22;19986;48.190;16.366;2023-04-25T00:35:32;13.90;99.90
33645;DHT22;19986;48.190;16.366;2023-04-25T00:37:58;13.80;99.90
33645;DHT22;19986;48.190;16.366;2023-04-25T00:40:24;13.80;99.90
33645;DHT22;19986;48.190;16.366;2023-04-25T00:42:51;13.80;99.90
33645;DHT22;19986;48.190;16.366;2023-04-25T00:45:18;13.80;99.90
33645;DHT22;19986;48.190;16.366;2023-04-25T00:47:44;13.80;99.90
33645;DHT22;19986;48.190;16.366;2023-04-25T00:50:11;13.80;99.90
33645;DHT22;19986;48.190;16.366;2023-04-25T00:52:39;13.80;99.90
33645;DHT22;19986;48.190;16.366;2023-04-25T00:55:06;13.90;99.90
33645;DHT22;19986;48.190;16.366;2023-04-25T00:57:33;13.90;99.90
33645;DHT22;19986;48.190;16.366;2023-04-25T00:59:59;13.90;99.90
33645;DHT22;19986;48.190;16.366;2023-04-25T01:02:26;13.90;99.90
33645;DHT22;19986;48.190;16.366;2023-04-25T01:04:53;13.80;99.90
33645;DHT22;19986;48.190;16.366;2023-04-25T01:07:19;13.80;99.90
33645;DHT22;19986;48.190;16.366;2023-04-25T01:09:46;13.80;99.90
33645;DHT22;19986;48.190;16.366;2023-04-25T01:12:12;13.80;99.90
33645;DHT22;19986;48.190;16.366;2023-04-25T01:14:38;13.90;99.90
33645;DHT22;19986;48.190;16.366;2023-04-25T01:17:04;13.90;99.90
33645;DHT22;19986;48.190;16.366;2023-04-25T01:19:30;13.90;99.90
33645;DHT22;19986;48.190;16.366;2023-04-25T01:21:56;13.80;99.90
33645;DHT22;19986;48.190;16.366;2023-04-25T01:24:22;13.70;99.90
33645;DHT22;19986;48.190;16.366;2023-04-25T01:26:48;13.80;99.90
33645;DHT22;19986;48.190;16.366;2023-04-25T01:29:19;13.80;99.90
33645;DHT22;19986;48.190;16.366;2023-04-25T01:31:46;13.80;99.90
33645;DHT22;19986;48.190;16.366;2023-04-25T01:34:12;13.70;99.90
33645;DHT22;19986;48.190;16.366;2023-04-25T01:36:39;13.80;99.90
33645;DHT22;19986;48.190;16.366;2023-04-25T01:39:05;13.80;99.90
33645;DHT22;19986;48.190;16.366;2023-04-25T01:41:31;13.80;99.90
33645;DHT22;19986;48.190;16.366;2023-04-25T01:43:57;13.80;99.90
33645;DHT22;19986;48.190;16.366;2023-04-25T01:46:23;13.80;99.90
33645;DHT22;19986;48.190;16.366;2023-04-25T01:48:49;13.80;99.90
33645;DHT22;19986;48.190;16.366;2023-04-25T01:51:15;13.80;99.90
33645;DHT22;19986;48.190;16.366;2023-04-25T01:53:42;13.80;99.90
33645;DHT22;19986;48.190;16.366;2023-04-25T01:56:08;13.90;99.90
33645;DHT22;19986;48.190;16.366;2023-04-25T01:58:34;13.80;99.90
33645;DHT22;19986;48.190;16.366;2023-04-25T02:01:00;13.80;99.90
33645;DHT22;19986;48.190;16.366;2023-04-25T02:03:26;13.80;99.90
33645;DHT22;19986;48.190;16.366;2023-04-25T02:05:52;13.80;99.90
33645;DHT22;19986;48.190;16.366;2023-04-25T02:08:19;13.80;99.90
33645;DHT22;19986;48.190;16.366;2023-04-25T02:10:45;13.80;99.90
33645;DHT22;19986;48.190;16.366;2023-04-25T02:13:12;13.80;99.90
33645;DHT22;19986;48.190;16.366;2023-04-25T02:15:37;13.80;99.90
33645;DHT22;19986;48.190;16.366;2023-04-25T02:18:04;13.80;99.90
33645;DHT22;19986;48.190;16.366;2023-04-25T02:20:32;13.80;99.90
33645;DHT22;19986;48.190;16.366;2023-04-25T02:22:58;13.80;99.90
33645;DHT22;19986;48.190;16.366;2023-04-25T02:25:24;13.70;99.90
33645;DHT22;19986;48.190;16.366;2023-04-25T02:27:51;13.80;99.90
33645;DHT22;19986;48.190;16.366;2023-04-25T02:30:17;13.70;99.90
33645;DHT22;19986;48.190;16.366;2023-04-25T02:32:43;13.60;99.90
33645;DHT22;19986;48.190;16.366;2023-04-25T02:35:09;13.60;99.90
33645;DHT22;19986;48.190;16.366;2023-04-25T02:37:37;13.60;99.90
33645;DHT22;19986;48.190;16.366;2023-04-25T02:40:04;13.60;99.90
33645;DHT22;19986;48.190;16.366;2023-04-25T02:42:31;13.60;99.90
33645;DHT22;19986;48.190;16.366;2023-04-25T02:44:58;13.60;99.90
33645;DHT22;19986;48.190;16.366;2023-04-25T02:47:24;13.50;99.90
33645;DHT22;19986;48.190;16.366;2023-04-25T02:49:51;13.50;99.90
33645;DHT22;19986;48.190;16.366;2023-04-25T02:52:17;13.50;99.90
33645;DHT22;19986;48.190;16.366;2023-04-25T02:54:43;13.50;99.90
33645;DHT22;19986;48.190;16.366;2023-04-25T02:57:08;13.40;99.90
33645;DHT22;19986;48.190;16.366;2023-04-25T03:02:21;13.40;99.90
33645;DHT22;19986;48.190;16.366;2023-04-25T03:04:47;13.40;99.90
33645;DHT22;19986;48.190;16.366;2023-04-25T03:07:13;13.40;99.90
33645;DHT22;19986;48.190;16.366;2023-04-25T03:09:39;13.40;99.90
33645;DHT22;19986;48.190;16.366;2023-04-25T03:12:05;13.40;99.90
33645;DHT22;19986;48.190;16.366;2023-04-25T03:14:31;13.40;99.90
33645;DHT22;19986;48.190;16.366;2023-04-25T03:16:57;13.40;99.90
33645;DHT22;19986;48.190;16.366;2023-04-25T03:19:23;13.40;99.90
33645;DHT22;19986;48.190;16.366;2023-04-25T03:21:49;13.40;99.90
33645;DHT22;19986;48.190;16.366;2023-04-25T03:24:15;13.40;99.90
33645;DHT22;19986;48.190;16.366;2023-04-25T03:26:41;13.40;99.90
33645;DHT22;19986;48.190;16.366;2023-04-25T03:29:08;13.40;99.90
33645;DHT22;19986;48.190;16.366;2023-04-25T03:31:34;13.30;99.90
33645;DHT22;19986;48.190;16.366;2023-04-25T03:34:00;13.30;99.90
33645;DHT22;19986;48.190;16.366;2023-04-25T03:36:27;13.20;99.90
33645;DHT22;19986;48.190;16.366;2023-04-25T03:38:53;13.20;99.90
33645;DHT22;19986;48.190;16.366;2023-04-25T03:41:19;13.10;99.90
33645;DHT22;19986;48.190;16.366;2023-04-25T03:43:45;13.10;99.90
33645;DHT22;19986;48.190;16.366;2023-04-25T03:46:11;13.10;99.90
33645;DHT22;19986;48.190;16.366;2023-04-25T03:48:37;13.10;99.90
33645;DHT22;19986;48.190;16.366;2023-04-25T03:51:03;13.10;99.90
33645;DHT22;19986;48.190;16.366;2023-04-25T03:53:29;13.10;99.90
33645;DHT22;19986;48.190;16.366;2023-04-25T03:55:54;13.10;99.90
33645;DHT22;19986;48.190;16.366;2023-04-25T03:58:20;13.10;99.90
33645;DHT22;19986;48.190;16.366;2023-04-25T04:00:48;13.10;99.90
33645;DHT22;19986;48.190;16.366;2023-04-25T04:03:14;13.00;99.90
33645;DHT22;19986;48.190;16.366;2023-04-25T04:05:40;13.00;99.90
33645;DHT22;19986;48.190;16.366;2023-04-25T04:08:06;13.00;99.90
33645;DHT22;19986;48.190;16.366;2023-04-25T04:10:32;13.00;99.90
33645;DHT22;19986;48.190;16.366;2023-04-25T04:12:58;13.00;99.90
33645;DHT22;19986;48.190;16.366;2023-04-25T04:15:24;13.00;99.90
33645;DHT22;19986;48.190;16.366;2023-04-25T04:17:50;13.00;99.90
33645;DHT22;19986;48.190;16.366;2023-04-25T04:20:15;13.00;99.90
33645;DHT22;19986;48.190;16.366;2023-04-25T04:22:41;12.90;99.90
33645;DHT22;19986;48.190;16.366;2023-04-25T04:25:07;12.90;99.90
33645;DHT22;19986;48.190;16.366;2023-04-25T04:27:33;12.90;99.90
33645;DHT22;19986;48.190;16.366;2023-04-25T04:29:59;12.90;99.90
33645;DHT22;19986;48.190;16.366;2023-04-25T04:32:25;12.90;99.90
33645;DHT22;19986;48.190;16.366;2023-04-25T04:34:53;12.90;99.90
33645;DHT22;19986;48.190;16.366;2023-04-25T04:37:20;12.90;99.90
33645;DHT22;19986;48.190;16.366;2023-04-25T04:39:47;12.90;99.90
33645;DHT22;19986;48.190;16.366;2023-04-25T04:42:15;12.90;99.90
33645;DHT22;19986;48.190;16.366;2023-04-25T04:44:41;12.80;99.90
33645;DHT22;19986;48.190;16.366;2023-04-25T04:47:10;12.80;99.90
33645;DHT22;19986;48.190;16.366;2023-04-25T04:49:36;12.80;99.90
33645;DHT22;19986;48.190;16.366;2023-04-25T04:52:02;12.80;99.90
33645;DHT22;19986;48.190;16.366;2023-04-25T04:54:27;12.80;99.90
33645;DHT22;19986;48.190;16.366;2023-04-25T04:56:53;12.80;99.90
33645;DHT22;19986;48.190;16.366;2023-04-25T04:59:19;12.80;99.90
33645;DHT22;19986;48.190;16.366;2023-04-25T05:01:45;12.90;99.90
33645;DHT22;19986;48.190;16.366;2023-04-25T05:04:12;12.80;99.90
33645;DHT22;19986;48.190;16.366;2023-04-25T05:06:38;12.80;99.90
33645;DHT22;19986;48.190;16.366;2023-04-25T05:09:04;12.80;99.90
33645;DHT22;19986;48.190;16.366;2023-04-25T05:11:30;12.80;99.90
33645;DHT22;19986;48.190;16.366;2023-04-25T05:13:55;12.70;99.90
33645;DHT22;19986;48.190;16.366;2023-04-25T05:16:21;12.70;99.90
33645;DHT22;19986;48.190;16.366;2023-04-25T05:18:47;12.80;99.90
33645;DHT22;19986;48.190;16.366;2023-04-25T05:21:13;12.80;99.90
33645;DHT22;19986;48.190;16.366;2023-04-25T05:23:39;12.80;99.90
33645;DHT22;19986;48.190;16.366;2023-04-25T05:26:05;12.80;99.90
33645;DHT22;19986;48.190;16.366;2023-04-25T05:28:31;12.80;99.90
33645;DHT22;19986;48.190;16.366;2023-04-25T05:30:57;12.80;99.90
33645;DHT22;19986;48.190;16.366;2023-04-25T05:33:23;12.80;99.90
33645;DHT22;19986;48.190;16.366;2023-04-25T05:35:48;12.80;99.90
33645;DHT22;19986;48.190;16.366;2023-04-25T05:38:14;12.80;99.90
33645;DHT22;19986;48.190;16.366;2023-04-25T05:40:41;12.90;99.90
33645;DHT22;19986;48.190;16.366;2023-04-25T05:43:07;13.00;99.90
33645;DHT22;19986;48.190;16.366;2023-04-25T05:45:33;13.00;99.90
33645;DHT22;19986;48.190;16.366;2023-04-25T05:47:58;13.10;99.90
33645;DHT22;19986;48.190;16.366;2023-04-25T05:50:24;13.20;99.90
33645;DHT22;19986;48.190;16.366;2023-04-25T05:52:51;13.30;99.90
33645;DHT22;19986;48.190;16.366;2023-04-25T05:55:16;13.30;99.90
33645;DHT22;19986;48.190;16.366;2023-04-25T05:57:42;13.50;99.90
33645;DHT22;19986;48.190;16.366;2023-04-25T06:00:12;13.50;99.90
33645;DHT22;19986;48.190;16.366;2023-04-25T06:02:38;13.60;99.90
33645;DHT22;19986;48.190;16.366;2023-04-25T06:05:04;13.70;99.90
33645;DHT22;19986;48.190;16.366;2023-04-25T06:07:30;13.80;99.90
33645;DHT22;19986;48.190;16.366;2023-04-25T06:09:57;13.80;99.90
33645;DHT22;19986;48.190;16.366;2023-04-25T06:12:24;13.80;99.90
33645;DHT22;19986;48.190;16.366;2023-04-25T06:14:50;13.90;99.90
33645;DHT22;19986;48.190;16.366;2023-04-25T06:17:17;13.90;99.90
33645;DHT22;19986;48.190;16.366;2023-04-25T06:19:44;14.00;99.90
33645;DHT22;19986;48.190;16.366;2023-04-25T06:22:10;14.10;99.90
33645;DHT22;19986;48.190;16.366;2023-04-25T06:24:36;14.20;99.90
33645;DHT22;19986;48.190;16.366;2023-04-25T06:27:01;14.30;99.90
33645;DHT22;19986;48.190;16.366;2023-04-25T06:29:28;14.30;99.90
33645;DHT22;19986;48.190;16.366;2023-04-25T06:31:54;14.40;99.90
33645;DHT22;19986;48.190;16.366;2023-04-25T06:34:34;14.50;99.90
33645;DHT22;19986;48.190;16.366;2023-04-25T06:37:00;14.60;99.90
33645;DHT22;19986;48.190;16.366;2023-04-25T06:39:26;14.60;99.90
33645;DHT22;19986;48.190;16.366;2023-04-25T06:41:52;14.70;99.90
33645;DHT22;19986;48.190;16.366;2023-04-25T06:44:18;14.70;99.90
33645;DHT22;19986;48.190;16.366;2023-04-25T06:46:44;14.70;99.90
33645;DHT22;19986;48.190;16.366;2023-04-25T06:49:10;14.80;99.90
33645;DHT22;19986;48.190;16.366;2023-04-25T06:51:36;14.80;99.90
33645;DHT22;19986;48.190;16.366;2023-04-25T06:54:02;14.90;99.90
33645;DHT22;19986;48.190;16.366;2023-04-25T06:56:29;15.00;99.90
33645;DHT22;19986;48.190;16.366;2023-04-25T06:58:56;15.10;99.90
33645;DHT22;19986;48.190;16.366;2023-04-25T07:01:22;15.20;99.90
33645;DHT22;19986;48.190;16.366;2023-04-25T07:03:48;15.30;99.90
33645;DHT22;19986;48.190;16.366;2023-04-25T07:06:14;15.40;99.90
33645;DHT22;19986;48.190;16.366;2023-04-25T07:08:40;15.50;99.90
33645;DHT22;19986;48.190;16.366;2023-04-25T07:11:08;15.50;99.90
33645;DHT22;19986;48.190;16.366;2023-04-25T07:13:33;15.50;99.90
33645;DHT22;19986;48.190;16.366;2023-04-25T07:16:00;15.60;99.90
33645;DHT22;19986;48.190;16.366;2023-04-25T07:18:26;15.80;99.90
33645;DHT22;19986;48.190;16.366;2023-04-25T07:20:51;15.90;99.90
33645;DHT22;19986;48.190;16.366;2023-04-25T07:23:17;16.00;99.90
33645;DHT22;19986;48.190;16.366;2023-04-25T07:25:43;15.90;99.90
33645;DHT22;19986;48.190;16.366;2023-04-25T07:28:09;16.00;99.90
33645;DHT22;19986;48.190;16.366;2023-04-25T07:30:35;15.90;99.90
33645;DHT22;19986;48.190;16.366;2023-04-25T07:33:03;15.90;99.90
33645;DHT22;19986;48.190;16.366;2023-04-25T07:35:30;15.90;99.90
33645;DHT22;19986;48.190;16.366;2023-04-25T07:37:55;16.00;99.90
33645;DHT22;19986;48.190;16.366;2023-04-25T07:40:21;16.10;99.90
33645;DHT22;19986;48.190;16.366;2023-04-25T07:42:49;16.20;99.90
33645;DHT22;19986;48.190;16.366;2023-04-25T07:45:15;16.20;99.90
33645;DHT22;19986;48.190;16.366;2023-04-25T07:47:41;16.20;99.90
33645;DHT22;19986;48.190;16.366;2023-04-25T07:50:08;16.20;99.90
33645;DHT22;19986;48.190;16.366;2023-04-25T07:52:35;16.20;99.90
33645;DHT22;19986;48.190;16.366;2023-04-25T07:55:01;16.20;99.60
33645;DHT22;19986;48.190;16.366;2023-04-25T07:57:29;16.30;99.70
33645;DHT22;19986;48.190;16.366;2023-04-25T07:59:55;16.50;99.90
33645;DHT22;19986;48.190;16.366;2023-04-25T08:02:21;16.60;99.80
33645;DHT22;19986;48.190;16.366;2023-04-25T08:04:47;16.70;99.70
33645;DHT22;19986;48.190;16.366;2023-04-25T08:07:15;16.80;99.80
33645;DHT22;19986;48.190;16.366;2023-04-25T08:09:44;16.80;99.80
33645;DHT22;19986;48.190;16.366;2023-04-25T08:12:09;17.00;99.20
33645;DHT22;19986;48.190;16.366;2023-04-25T08:14:35;16.90;99.20
33645;DHT22;19986;48.190;16.366;2023-04-25T08:17:05;17.00;99.30
33645;DHT22;19986;48.190;16.366;2023-04-25T08:19:31;17.00;99.30
33645;DHT22;19986;48.190;16.366;2023-04-25T08:21:57;17.10;98.80
33645;DHT22;19986;48.190;16.366;2023-04-25T08:24:23;17.20;98.90
33645;DHT22;19986;48.190;16.366;2023-04-25T08:26:49;17.30;98.30
33645;DHT22;19986;48.190;16.366;2023-04-25T08:29:15;17.30;98.30
33645;DHT22;19986;48.190;16.366;2023-04-25T08:31:41;17.30;98.20
33645;DHT22;19986;48.190;16.366;2023-04-25T08:34:06;17.40;98.40
33645;DHT22;19986;48.190;16.366;2023-04-25T08:36:32;17.30;97.70
33645;DHT22;19986;48.190;16.366;2023-04-25T08:38:58;17.30;98.10
33645;DHT22;19986;48.190;16.366;2023-04-25T08:41:24;17.40;98.40
33645;DHT22;19986;48.190;16.366;2023-04-25T08:43:51;17.50;97.90
33645;DHT22;19986;48.190;16.366;2023-04-25T08:46:18;17.60;98.20
33645;DHT22;19986;48.190;16.366;2023-04-25T08:48:45;17.50;97.50
33645;DHT22;19986;48.190;16.366;2023-04-25T08:51:21;17.50;97.60
33645;DHT22;19986;48.190;16.366;2023-04-25T08:53:49;17.50;97.70
33645;DHT22;19986;48.190;16.366;2023-04-25T08:56:16;17.60;97.60
33645;DHT22;19986;48.190;16.366;2023-04-25T08:58:48;17.70;97.40
33645;DHT22;19986;48.190;16.366;2023-04-25T09:01:16;17.80;96.80
33645;DHT22;19986;48.190;16.366;2023-04-25T09:03:44;17.90;97.30
33645;DHT22;19986;48.190;16.366;2023-04-25T09:06:11;18.00;96.80
33645;DHT22;19986;48.190;16.366;2023-04-25T09:08:37;17.90;97.50
33645;DHT22;19986;48.190;16.366;2023-04-25T09:11:03;17.90;97.60
33645;DHT22;19986;48.190;16.366;2023-04-25T09:13:29;18.00;97.90
33645;DHT22;19986;48.190;16.366;2023-04-25T09:15:56;18.00;97.30
33645;DHT22;19986;48.190;16.366;2023-04-25T09:18:30;17.90;97.10
33645;DHT22;19986;48.190;16.366;2023-04-25T09:20:58;17.90;97.10
33645;DHT22;19986;48.190;16.366;2023-04-25T09:23:30;17.90;97.10
33645;DHT22;19986;48.190;16.366;2023-04-25T09:25:58;17.80;98.40
33645;DHT22;19986;48.190;16.366;2023-04-25T09:28:25;17.70;99.50
33645;DHT22;19986;48.190;16.366;2023-04-25T09:30:55;17.60;99.30
33645;DHT22;19986;48.190;16.366;2023-04-25T09:33:32;17.50;99.30
33645;DHT22;19986;48.190;16.366;2023-04-25T09:38:31;17.40;99.90
33645;DHT22;19986;48.190;16.366;2023-04-25T09:40:58;17.20;99.90
33645;DHT22;19986;48.190;16.366;2023-04-25T09:43:25;16.80;99.90
33645;DHT22;19986;48.190;16.366;2023-04-25T09:45:53;16.70;99.90
33645;DHT22;19986;48.190;16.366;2023-04-25T09:48:22;16.70;99.90
33645;DHT22;19986;48.190;16.366;2023-04-25T09:51:05;16.80;99.90
33645;DHT22;19986;48.190;16.366;2023-04-25T09:53:38;17.10;99.90
33645;DHT22;19986;48.190;16.366;2023-04-25T09:56:06;17.30;99.90
33645;DHT22;19986;48.190;16.366;2023-04-25T09:58:33;17.50;99.90
33645;DHT22;19986;48.190;16.366;2023-04-25T10:01:01;17.80;99.90
33645;DHT22;19986;48.190;16.366;2023-04-25T10:03:30;18.00;99.90
33645;DHT22;19986;48.190;16.366;2023-04-25T10:05:59;18.10;99.50
33645;DHT22;19986;48.190;16.366;2023-04-25T10:08:32;18.10;98.80
33645;DHT22;19986;48.190;16.366;2023-04-25T10:11:04;18.40;98.50
33645;DHT22;19986;48.190;16.366;2023-04-25T10:13:31;18.50;98.50
33645;DHT22;19986;48.190;16.366;2023-04-25T10:15:58;18.80;98.40
33645;DHT22;19986;48.190;16.366;2023-04-25T10:18:28;19.70;97.30
33645;DHT22;19986;48.190;16.366;2023-04-25T10:21:00;20.20;96.00
33645;DHT22;19986;48.190;16.366;2023-04-25T10:23:26;20.20;95.10
33645;DHT22;19986;48.190;16.366;2023-04-25T10:25:53;20.00;94.90
33645;DHT22;19986;48.190;16.366;2023-04-25T10:28:20;19.80;95.20
33645;DHT22;19986;48.190;16.366;2023-04-25T10:31:07;19.60;95.40
33645;DHT22;19986;48.190;16.366;2023-04-25T10:33:38;19.30;95.10
33645;DHT22;19986;48.190;16.366;2023-04-25T10:36:33;18.70;95.30
33645;DHT22;19986;48.190;16.366;2023-04-25T10:39:04;18.30;95.80
33645;DHT22;19986;48.190;16.366;2023-04-25T10:41:46;18.10;95.80
33645;DHT22;19986;48.190;16.366;2023-04-25T10:44:14;18.10;95.70
33645;DHT22;19986;48.190;16.366;2023-04-25T10:46:40;18.00;95.70
33645;DHT22;19986;48.190;16.366;2023-04-25T10:49:08;18.10;95.60
33645;DHT22;19986;48.190;16.366;2023-04-25T10:51:36;18.20;95.60
33645;DHT22;19986;48.190;16.366;2023-04-25T10:54:04;18.70;95.10
33645;DHT22;19986;48.190;16.366;2023-04-25T10:56:38;19.30;94.60
33645;DHT22;19986;48.190;16.366;2023-04-25T10:59:14;20.30;94.10
33645;DHT22;19986;48.190;16.366;2023-04-25T11:01:42;21.80;93.50
33645;DHT22;19986;48.190;16.366;2023-04-25T11:09:38;26.30;85.50
33645;DHT22;19986;48.190;16.366;2023-04-25T11:12:04;27.30;82.70
33645;DHT22;19986;48.190;16.366;2023-04-25T11:14:30;28.00;79.50
33645;DHT22;19986;48.190;16.366;2023-04-25T11:16:59;28.10;78.60
33645;DHT22;19986;48.190;16.366;2023-04-25T11:19:26;28.20;78.30
33645;DHT22;19986;48.190;16.366;2023-04-25T11:21:58;28.30;77.70
33645;DHT22;19986;48.190;16.366;2023-04-25T11:24:31;28.60;76.10
33645;DHT22;19986;48.190;16.366;2023-04-25T11:27:04;28.50;75.60
33645;DHT22;19986;48.190;16.366;2023-04-25T11:29:33;28.00;76.10
33645;DHT22;19986;48.190;16.366;2023-04-25T11:32:00;27.10;76.20
33645;DHT22;19986;48.190;16.366;2023-04-25T11:34:28;25.60;77.70
33645;DHT22;19986;48.190;16.366;2023-04-25T11:36:56;23.10;84.90
33645;DHT22;19986;48.190;16.366;2023-04-25T11:39:26;21.00;91.00
33645;DHT22;19986;48.190;16.366;2023-04-25T11:41:53;19.20;94.40
33645;DHT22;19986;48.190;16.366;2023-04-25T11:44:19;17.90;98.60
33645;DHT22;19986;48.190;16.366;2023-04-25T11:46:46;17.10;99.80
33645;DHT22;19986;48.190;16.366;2023-04-25T11:49:13;16.50;99.90
33645;DHT22;19986;48.190;16.366;2023-04-25T11:51:42;16.10;99.90
33645;DHT22;19986;48.190;16.366;2023-04-25T11:54:09;16.00;99.90
33645;DHT22;19986;48.190;16.366;2023-04-25T11:56:35;15.90;99.90
33645;DHT22;19986;48.190;16.366;2023-04-25T11:59:05;15.90;99.90
33645;DHT22;19986;48.190;16.366;2023-04-25T12:01:33;15.90;99.90
33645;DHT22;19986;48.190;16.366;2023-04-25T12:04:20;16.00;99.90
33645;DHT22;19986;48.190;16.366;2023-04-25T12:06:48;16.20;99.90
33645;DHT22;19986;48.190;16.366;2023-04-25T12:09:16;16.40;99.90
33645;DHT22;19986;48.190;16.366;2023-04-25T12:11:44;16.70;99.90
33645;DHT22;19986;48.190;16.366;2023-04-25T12:14:11;17.50;99.90
33645;DHT22;19986;48.190;16.366;2023-04-25T12:16:45;18.20;99.90
33645;DHT22;19986;48.190;16.366;2023-04-25T12:19:14;18.80;99.90
33645;DHT22;19986;48.190;16.366;2023-04-25T12:21:41;19.10;99.90
33645;DHT22;19986;48.190;16.366;2023-04-25T12:24:18;19.60;99.00
33645;DHT22;19986;48.190;16.366;2023-04-25T12:27:04;20.00;97.90
33645;DHT22;19986;48.190;16.366;2023-04-25T12:29:32;20.40;96.90
33645;DHT22;19986;48.190;16.366;2023-04-25T12:31:59;20.30;96.70
33645;DHT22;19986;48.190;16.366;2023-04-25T12:34:27;20.30;96.40
33645;DHT22;19986;48.190;16.366;2023-04-25T12:36:54;20.40;96.80
33645;DHT22;19986;48.190;16.366;2023-04-25T12:39:22;20.40;96.20
33645;DHT22;19986;48.190;16.366;2023-04-25T12:41:49;20.30;95.20
33645;DHT22;19986;48.190;16.366;2023-04-25T12:44:15;20.30;95.50
33645;DHT22;19986;48.190;16.366;2023-04-25T12:46:41;20.30;96.10
33645;DHT22;19986;48.190;16.366;2023-04-25T12:49:08;20.40;95.90
33645;DHT22;19986;48.190;16.366;2023-04-25T12:51:35;20.40;95.30
33645;DHT22;19986;48.190;16.366;2023-04-25T12:54:02;20.40;94.90
33645;DHT22;19986;48.190;16.366;2023-04-25T12:56:28;20.30;94.30
33645;DHT22;19986;48.190;16.366;2023-04-25T12:58:54;19.90;94.60
33645;DHT22;19986;48.190;16.366;2023-04-25T13:01:21;19.60;94.40
33645;DHT22;19986;48.190;16.366;2023-04-25T13:03:47;19.20;95.20
33645;DHT22;19986;48.190;16.366;2023-04-25T13:06:17;19.10;95.40
33645;DHT22;19986;48.190;16.366;2023-04-25T13:08:43;19.00;95.10
33645;DHT22;19986;48.190;16.366;2023-04-25T13:11:09;18.90;94.70
33645;DHT22;19986;48.190;16.366;2023-04-25T13:13:35;18.80;95.00
33645;DHT22;19986;48.190;16.366;2023-04-25T13:16:02;18.80;94.60
33645;DHT22;19986;48.190;16.366;2023-04-25T13:18:29;18.70;94.50
33645;DHT22;19986;48.190;16.366;2023-04-25T13:20:56;18.60;95.00
33645;DHT22;19986;48.190;16.366;2023-04-25T13:23:22;18.60;94.60
33645;DHT22;19986;48.190;16.366;2023-04-25T13:25:48;18.60;94.90
33645;DHT22;19986;48.190;16.366;2023-04-25T13:28:14;18.60;94.40
33645;DHT22;19986;48.190;16.366;2023-04-25T13:30:41;18.60;94.40
33645;DHT22;19986;48.190;16.366;2023-04-25T13:33:06;18.60;94.20
33645;DHT22;19986;48.190;16.366;2023-04-25T13:35:34;18.60;94.10
33645;DHT22;19986;48.190;16.366;2023-04-25T13:38:00;18.60;93.40
33645;DHT22;19986;48.190;16.366;2023-04-25T13:40:27;18.40;93.00
33645;DHT22;19986;48.190;16.366;2023-04-25T13:42:53;18.40;93.10
33645;DHT22;19986;48.190;16.366;2023-04-25T13:45:19;18.30;93.20
33645;DHT22;19986;48.190;16.366;2023-04-25T13:47:46;18.40;93.20
33645;DHT22;19986;48.190;16.366;2023-04-25T13:50:12;18.40;92.70
33645;DHT22;19986;48.190;16.366;2023-04-25T13:52:39;18.30;92.30
33645;DHT22;19986;48.190;16.366;2023-04-25T13:55:06;18.40;92.90
33645;DHT22;19986;48.190;16.366;2023-04-25T13:57:33;18.40;92.90
33645;DHT22;19986;48.190;16.366;2023-04-25T13:59:59;18.40;93.90
33645;DHT22;19986;48.190;16.366;2023-04-25T14:02:30;18.40;94.60
33645;DHT22;19986;48.190;16.366;2023-04-25T14:04:57;18.50;94.30
33645;DHT22;19986;48.190;16.366;2023-04-25T14:07:22;18.50;94.20
33645;DHT22;19986;48.190;16.366;2023-04-25T14:09:48;18.40;94.50
33645;DHT22;19986;48.190;16.366;2023-04-25T14:12:15;18.50;94.10
33645;DHT22;19986;48.190;16.366;2023-04-25T14:14:41;18.50;93.70
33645;DHT22;19986;48.190;16.366;2023-04-25T14:17:08;18.60;93.80
33645;DHT22;19986;48.190;16.366;2023-04-25T14:19:34;18.60;93.50
33645;DHT22;19986;48.190;16.366;2023-04-25T14:22:00;18.40;94.00
33645;DHT22;19986;48.190;16.366;2023-04-25T14:24:26;18.40;94.40
33645;DHT22;19986;48.190;16.366;2023-04-25T14:26:52;18.70;94.10
33645;DHT22;19986;48.190;16.366;2023-04-25T14:29:18;18.70;94.10
33645;DHT22;19986;48.190;16.366;2023-04-25T14:31:44;19.00;93.90
33645;DHT22;19986;48.190;16.366;2023-04-25T14:34:10;18.90;93.80
33645;DHT22;19986;48.190;16.366;2023-04-25T14:36:36;18.80;93.90
33645;DHT22;19986;48.190;16.366;2023-04-25T14:39:03;18.80;94.10
33645;DHT22;19986;48.190;16.366;2023-04-25T14:41:30;18.50;94.10
33645;DHT22;19986;48.190;16.366;2023-04-25T14:43:56;18.20;94.50
33645;DHT22;19986;48.190;16.366;2023-04-25T14:46:22;18.00;94.90
33645;DHT22;19986;48.190;16.366;2023-04-25T14:48:51;18.00;95.30
33645;DHT22;19986;48.190;16.366;2023-04-25T14:51:17;18.00;95.40
33645;DHT22;19986;48.190;16.366;2023-04-25T14:53:43;17.90;95.30
33645;DHT22;19986;48.190;16.366;2023-04-25T14:56:09;17.80;95.40
33645;DHT22;19986;48.190;16.366;2023-04-25T14:58:35;17.90;95.20
33645;DHT22;19986;48.190;16.366;2023-04-25T15:01:01;18.00;94.60
33645;DHT22;19986;48.190;16.366;2023-04-25T15:03:27;17.90;94.70
33645;DHT22;19986;48.190;16.366;2023-04-25T15:05:55;17.90;94.70
33645;DHT22;19986;48.190;16.366;2023-04-25T15:08:21;18.00;94.60
33645;DHT22;19986;48.190;16.366;2023-04-25T15:10:47;17.80;94.60
33645;DHT22;19986;48.190;16.366;2023-04-25T15:13:14;17.70;95.20
33645;DHT22;19986;48.190;16.366;2023-04-25T15:15:43;17.50;95.70
33645;DHT22;19986;48.190;16.366;2023-04-25T15:18:08;17.30;96.30
33645;DHT22;19986;48.190;16.366;2023-04-25T15:20:34;17.30;96.90
33645;DHT22;19986;48.190;16.366;2023-04-25T15:23:01;17.40;97.30
33645;DHT22;19986;48.190;16.366;2023-04-25T15:25:28;17.30;97.40